createdAt,value
2016-02-03T00:00:31.086Z,5.7
2016-02-03T00:01:30.574Z,5.7
2016-02-03T00:02:30.046Z,5.8
2016-02-03T00:03:29.283Z,5.9
2016-02-03T00:04:28.505Z,5.9
2016-02-03T00:05:27.210Z,5.9
2016-02-03T00:06:25.978Z,5.9
2016-02-03T00:07:27.716Z,5.9
2016-02-03T00:08:26.688Z,6
2016-02-03T00:09:25.596Z,6
2016-02-03T00:10:24.129Z,6
2016-02-03T00:11:22.836Z,6.1
2016-02-03T00:12:21.541Z,6.1
2016-02-03T00:13:20.513Z,6.1
2016-02-03T00:14:18.939Z,6.1
2016-02-03T00:15:17.458Z,6.1
2016-02-03T00:16:16.507Z,6.1
2016-02-03T00:17:17.713Z,6.1
2016-02-03T00:18:20.059Z,6.1
2016-02-03T00:19:22.048Z,6.1
2016-02-03T00:20:24.332Z,6.1
2016-02-03T00:21:22.788Z,6.2
2016-02-03T00:22:21.259Z,6.2
2016-02-03T00:23:23.558Z,6.2
2016-02-03T00:24:25.597Z,6.2
2016-02-03T00:25:27.646Z,6.2
2016-02-03T00:26:30.008Z,6.2
2016-02-03T00:27:31.744Z,6.2
2016-02-03T00:28:33.517Z,6.3
2016-02-03T00:29:35.317Z,6.2
2016-02-03T00:30:37.117Z,6.2
2016-02-03T00:31:38.901Z,6.3
2016-02-03T00:32:40.681Z,6.2
2016-02-03T00:33:41.949Z,6.3
2016-02-03T00:34:43.484Z,6.3
2016-02-03T00:35:44.767Z,6.3
2016-02-03T00:36:46.364Z,6.3
2016-02-03T00:37:48.086Z,6.3
2016-02-03T00:38:49.651Z,6.3
2016-02-03T00:39:51.154Z,6.3
2016-02-03T00:40:52.688Z,6.3
2016-02-03T00:41:53.968Z,6.3
2016-02-03T00:42:55.490Z,6.3
2016-02-03T00:43:56.779Z,6.3
2016-02-03T00:44:58.048Z,6.3
2016-02-03T00:45:59.316Z,6.3
2016-02-03T00:47:00.399Z,6.3
2016-02-03T00:48:02.152Z,6.3
2016-02-03T00:49:03.421Z,6.3
2016-02-03T00:50:04.721Z,6.2
2016-02-03T00:51:06.240Z,6.2
2016-02-03T00:52:07.493Z,6.2
2016-02-03T00:53:08.796Z,6.2
2016-02-03T00:54:10.313Z,6.2
2016-02-03T00:55:12.129Z,6.2
2016-02-03T00:56:13.928Z,6.2
2016-02-03T00:57:15.745Z,6.1
2016-02-03T00:58:17.482Z,6.2
2016-02-03T00:59:19.265Z,6.2
2016-02-03T01:00:21.065Z,6.2
2016-02-03T01:01:22.318Z,6.2
2016-02-03T01:02:23.602Z,6.2
2016-02-03T01:03:24.885Z,6.2
2016-02-03T01:04:26.204Z,6.2
2016-02-03T01:05:27.940Z,6.2
2016-02-03T01:06:29.476Z,6.2
2016-02-03T01:07:31.338Z,6.1
2016-02-03T01:08:33.064Z,6.1
2016-02-03T01:09:34.848Z,6.1
2016-02-03T01:10:36.648Z,6.1
2016-02-03T01:11:38.697Z,6
2016-02-03T01:12:40.747Z,6
2016-02-03T01:13:43.031Z,6
2016-02-03T01:14:45.080Z,6
2016-02-03T01:15:46.897Z,6
2016-02-03T01:16:48.931Z,5.9
2016-02-03T01:17:51.308Z,5.9
2016-02-03T01:18:53.013Z,5.9
2016-02-03T01:19:55.313Z,5.8
2016-02-03T01:20:57.596Z,5.8
2016-02-03T01:21:56.051Z,5.8
2016-02-03T01:22:54.522Z,5.7
2016-02-03T01:23:56.841Z,5.7
2016-02-03T01:24:59.124Z,5.7
2016-02-03T01:26:01.409Z,5.7
2016-02-03T01:26:59.865Z,5.7
2016-02-03T01:27:58.385Z,5.8
2016-02-03T01:29:00.137Z,5.7
2016-02-03T01:30:02.439Z,5.7
2016-02-03T01:31:04.489Z,5.7
2016-02-03T01:32:06.789Z,5.7
2016-02-03T01:33:08.838Z,5.7
2016-02-03T01:34:10.887Z,5.8
2016-02-03T01:35:13.204Z,5.8
2016-02-03T01:36:15.237Z,5.9
2016-02-03T01:37:17.271Z,5.9
2016-02-03T01:38:19.117Z,5.9
2016-02-03T01:39:20.854Z,6
2016-02-03T01:40:22.390Z,6
2016-02-03T01:41:23.657Z,6
2016-02-03T01:42:24.941Z,6.1
2016-02-03T01:43:26.210Z,6.1
2016-02-03T01:44:27.494Z,6.1
2016-02-03T01:45:28.778Z,6.1
2016-02-03T01:46:30.046Z,6.1
2016-02-03T01:47:31.314Z,6.1
2016-02-03T01:48:32.662Z,6.1
2016-02-03T01:49:34.382Z,6.1
2016-02-03T01:50:35.151Z,6
2016-02-03T01:51:35.904Z,5.9
2016-02-03T01:52:36.923Z,5.9
2016-02-03T01:53:38.209Z,5.8
2016-02-03T01:54:39.494Z,5.8
2016-02-03T01:55:40.746Z,5.8
2016-02-03T01:56:41.515Z,5.8
2016-02-03T01:57:42.267Z,5.7
2016-02-03T01:58:43.087Z,5.7
2016-02-03T01:59:44.840Z,5.7
2016-02-03T02:00:46.092Z,5.7
2016-02-03T02:01:47.361Z,5.7
2016-02-03T02:02:48.395Z,5.7
2016-02-03T02:03:49.664Z,5.7
2016-02-03T02:04:50.931Z,5.7
2016-02-03T02:05:52.215Z,5.7
2016-02-03T02:06:53.499Z,5.8
2016-02-03T02:07:54.503Z,5.8
2016-02-03T02:08:55.333Z,5.9
2016-02-03T02:09:57.055Z,5.9
2016-02-03T02:10:57.573Z,6
2016-02-03T02:11:58.077Z,6
2016-02-03T02:12:58.845Z,6
2016-02-03T02:13:59.863Z,6
2016-02-03T02:15:00.620Z,6
2016-02-03T02:16:01.389Z,6
2016-02-03T02:17:02.408Z,6
2016-02-03T02:18:03.160Z,6
2016-02-03T02:19:03.460Z,6.1
2016-02-03T02:20:05.215Z,6.1
2016-02-03T02:21:05.984Z,6.1
2016-02-03T02:22:06.214Z,6.1
2016-02-03T02:23:06.200Z,6.1
2016-02-03T02:24:06.453Z,6.1
2016-02-03T02:25:06.706Z,6.1
2016-02-03T02:26:06.975Z,6.1
2016-02-03T02:27:07.211Z,6.2
2016-02-03T02:28:07.480Z,6.1
2016-02-03T02:29:08.028Z,6.2
2016-02-03T02:30:09.752Z,6.2
2016-02-03T02:31:10.004Z,6.2
2016-02-03T02:32:10.259Z,6.2
2016-02-03T02:33:10.512Z,6.2
2016-02-03T02:34:10.485Z,6.2
2016-02-03T02:35:10.752Z,6.2
2016-02-03T02:36:10.989Z,6.2
2016-02-03T02:37:11.245Z,6.2
2016-02-03T02:38:11.497Z,6.3
2016-02-03T02:39:11.798Z,6.2
2016-02-03T02:40:13.518Z,6.2
2016-02-03T02:41:13.521Z,6.2
2016-02-03T02:42:13.776Z,6.2
2016-02-03T02:43:13.515Z,6.2
2016-02-03T02:44:13.782Z,6.2
2016-02-03T02:45:13.520Z,6.2
2016-02-03T02:46:12.740Z,6.2
2016-02-03T02:47:11.962Z,6.2
2016-02-03T02:48:11.184Z,6.2
2016-02-03T02:49:10.473Z,6.2
2016-02-03T02:50:12.194Z,6.2
2016-02-03T02:51:11.165Z,6.2
2016-02-03T02:52:10.387Z,6.2
2016-02-03T02:53:09.109Z,6.2
2016-02-03T02:54:08.065Z,6.2
2016-02-03T02:55:06.815Z,6.2
2016-02-03T02:56:05.686Z,6.2
2016-02-03T02:57:04.460Z,6.2
2016-02-03T02:58:02.963Z,6.2
2016-02-03T02:59:01.702Z,6.2
2016-02-03T03:00:03.423Z,6.2
2016-02-03T03:01:01.863Z,6.2
2016-02-03T03:02:00.304Z,6.2
2016-02-03T03:02:59.025Z,6.2
2016-02-03T03:03:58.012Z,6.2
2016-02-03T03:06:57.709Z,6.2
2016-02-03T03:08:00.009Z,6.1
2016-02-03T03:08:58.528Z,6.1
2016-02-03T03:10:00.250Z,6
2016-02-03T03:10:58.970Z,6
2016-02-03T03:11:57.927Z,5.9
2016-02-03T03:12:57.182Z,5.9
2016-02-03T03:13:56.387Z,5.9
2016-02-03T03:14:55.623Z,5.8
2016-02-03T03:15:54.830Z,5.8
2016-02-03T03:17:52.773Z,5.7
2016-02-03T03:18:52.040Z,5.7
2016-02-03T03:19:53.778Z,5.7
2016-02-03T03:20:53.250Z,5.7
2016-02-03T03:21:52.222Z,5.7
2016-02-03T03:22:50.928Z,5.7
2016-02-03T03:23:49.649Z,5.7
2016-02-03T03:24:48.606Z,5.7
2016-02-03T03:25:47.328Z,5.6
2016-02-03T03:26:46.033Z,5.6
2016-02-03T03:27:44.740Z,5.6
2016-02-03T03:28:43.523Z,5.6
2016-02-03T03:29:45.262Z,5.6
2016-02-03T03:30:44.498Z,5.6
2016-02-03T03:31:43.189Z,5.6
2016-02-03T03:32:41.646Z,5.6
2016-02-03T03:33:40.366Z,5.6
2016-02-03T03:34:39.323Z,5.6
2016-02-03T03:35:38.029Z,5.6
2016-02-03T03:36:36.749Z,5.6
2016-02-03T03:37:35.190Z,5.6
2016-02-03T03:38:33.958Z,5.6
2016-02-03T03:39:35.696Z,5.6
2016-02-03T03:40:34.401Z,5.6
2016-02-03T03:41:33.123Z,5.6
2016-02-03T03:42:31.578Z,5.6
2016-02-03T03:43:33.878Z,5.6
2016-02-03T03:44:32.321Z,5.6
2016-02-03T03:45:34.370Z,5.7
2016-02-03T03:46:36.701Z,5.7
2016-02-03T03:47:35.125Z,5.7
2016-02-03T03:48:33.894Z,5.7
2016-02-03T03:49:35.647Z,5.7
2016-02-03T03:50:37.931Z,5.7
2016-02-03T03:51:40.231Z,5.7
2016-02-03T03:52:38.703Z,5.7
2016-02-03T03:53:37.409Z,5.7
2016-02-03T03:54:39.693Z,5.7
2016-02-03T03:55:38.165Z,5.7
2016-02-03T03:56:36.871Z,5.6
2016-02-03T03:57:35.326Z,5.6
2016-02-03T03:58:37.674Z,5.6
2016-02-03T03:59:39.411Z,5.7
2016-02-03T04:00:38.117Z,5.7
2016-02-03T04:01:36.572Z,5.7
2016-02-03T04:02:38.622Z,5.8
2016-02-03T04:03:40.659Z,5.8
2016-02-03T04:04:42.445Z,5.8
2016-02-03T04:05:44.243Z,5.8
2016-02-03T04:06:46.292Z,5.8
2016-02-03T04:07:48.593Z,5.8
2016-02-03T04:08:47.095Z,5.7
2016-02-03T04:09:48.833Z,5.8
2016-02-03T04:10:51.148Z,5.8
2016-02-03T04:11:49.854Z,5.8
2016-02-03T04:12:48.560Z,5.8
2016-02-03T04:13:47.282Z,5.8
2016-02-03T04:14:46.237Z,5.8
2016-02-03T04:15:44.962Z,5.9
2016-02-03T04:16:43.666Z,5.9
2016-02-03T04:17:42.639Z,5.9
2016-02-03T04:18:41.406Z,5.9
2016-02-03T04:19:43.128Z,5.9
2016-02-03T04:20:45.427Z,5.9
2016-02-03T04:21:43.883Z,5.9
2016-02-03T04:22:46.200Z,5.9
2016-02-03T04:23:48.484Z,5.9
2016-02-03T04:24:47.206Z,5.9
2016-02-03T04:25:45.662Z,6
2016-02-03T04:26:44.368Z,6
2016-02-03T04:27:43.077Z,6
2016-02-03T04:28:41.595Z,6
2016-02-03T04:29:43.318Z,6
2016-02-03T04:30:45.368Z,6.1
2016-02-03T04:31:47.667Z,6.1
2016-02-03T04:32:46.123Z,6.1
2016-02-03T04:33:48.422Z,6.1
2016-02-03T04:34:50.725Z,6.1
2016-02-03T04:35:53.024Z,6.1
2016-02-03T04:36:51.745Z,6.1
2016-02-03T04:37:50.202Z,6.1
2016-02-03T04:38:48.704Z,6.1
2016-02-03T04:39:50.457Z,6.1
2016-02-03T04:40:49.163Z,6.1
2016-02-03T04:41:47.869Z,6.1
2016-02-03T04:42:46.575Z,6.1
2016-02-03T04:43:45.280Z,6.1
2016-02-03T04:44:43.737Z,6.1
2016-02-03T04:45:42.191Z,6.1
2016-02-03T04:46:44.492Z,6.1
2016-02-03T04:47:43.214Z,6.1
2016-02-03T04:48:41.983Z,6.1
2016-02-03T04:49:43.704Z,6.1
2016-02-03T04:50:46.003Z,6.1
2016-02-03T04:51:48.053Z,6.1
2016-02-03T04:52:50.087Z,6.1
2016-02-03T04:53:52.138Z,6.1
2016-02-03T04:54:54.438Z,6
2016-02-03T04:55:53.144Z,6
2016-02-03T04:56:51.599Z,6
2016-02-03T04:57:53.649Z,6
2016-02-03T04:58:56.011Z,6
2016-02-03T04:59:57.749Z,5.9
2016-02-03T05:01:00.048Z,5.9
2016-02-03T05:02:02.082Z,5.9
2016-02-03T05:03:04.382Z,5.9
2016-02-03T05:04:03.092Z,5.9
2016-02-03T05:05:01.538Z,5.9
2016-02-03T05:06:03.322Z,5.9
2016-02-03T05:07:04.856Z,5.9
2016-02-03T05:08:06.406Z,5.9
2016-02-03T05:09:07.737Z,5.9
2016-02-03T05:10:09.458Z,5.9
2016-02-03T05:11:11.507Z,5.9
2016-02-03T05:12:13.293Z,5.9
2016-02-03T05:13:15.329Z,5.9
2016-02-03T05:14:17.129Z,5.9
2016-02-03T05:15:18.913Z,5.9
2016-02-03T05:16:20.446Z,6
2016-02-03T05:17:21.981Z,6
2016-02-03T05:18:23.266Z,6
2016-02-03T05:19:24.080Z,6
2016-02-03T05:20:25.817Z,5.9
2016-02-03T05:21:27.069Z,5.9
2016-02-03T05:22:28.869Z,5.9
2016-02-03T05:23:30.138Z,5.9
2016-02-03T05:24:31.925Z,5.9
2016-02-03T05:25:33.443Z,5.9
2016-02-03T05:26:34.980Z,5.9
2016-02-03T05:27:36.529Z,5.9
2016-02-03T05:28:37.798Z,5.9
2016-02-03T05:29:39.133Z,5.9
2016-02-03T05:30:40.854Z,5.9
2016-02-03T05:31:42.403Z,6
2016-02-03T05:32:43.672Z,6
2016-02-03T05:33:45.456Z,5.9
2016-02-03T05:34:47.256Z,6
2016-02-03T05:35:48.275Z,5.9
2016-02-03T05:36:49.293Z,6
2016-02-03T05:37:50.295Z,6
2016-02-03T05:38:51.069Z,6
2016-02-03T05:39:52.151Z,6
2016-02-03T05:40:53.873Z,6
2016-02-03T05:41:54.891Z,5.9
2016-02-03T05:42:55.910Z,5.9
2016-02-03T05:43:56.664Z,5.9
2016-02-03T05:44:57.431Z,5.9
2016-02-03T05:45:58.200Z,5.9
2016-02-03T05:46:58.952Z,5.9
2016-02-03T05:47:59.456Z,5.9
2016-02-03T05:49:00.224Z,5.9
2016-02-03T05:50:00.789Z,5.9
2016-02-03T05:51:02.510Z,5.9
2016-02-03T05:52:03.029Z,5.9
2016-02-03T05:53:04.032Z,5.9
2016-02-03T05:54:04.801Z,5.9
2016-02-03T05:55:05.303Z,5.9
2016-02-03T05:56:06.076Z,5.9
2016-02-03T05:57:07.093Z,5.9
2016-02-03T05:58:07.595Z,5.9
2016-02-03T05:59:07.865Z,5.9
2016-02-03T06:00:08.163Z,6
2016-02-03T06:01:09.886Z,6
2016-02-03T06:02:10.404Z,6
2016-02-03T06:03:11.172Z,6
2016-02-03T06:04:11.924Z,6
2016-02-03T06:05:12.443Z,6
2016-02-03T06:06:13.195Z,5.9
2016-02-03T06:07:13.698Z,6
2016-02-03T06:08:14.454Z,5.9
2016-02-03T06:09:15.224Z,5.9
2016-02-03T06:10:16.288Z,5.9
2016-02-03T06:11:18.026Z,5.9
2016-02-03T06:12:19.825Z,5.9
2016-02-03T06:13:21.344Z,5.9
2016-02-03T06:14:23.128Z,5.8
2016-02-03T06:15:24.931Z,5.8
2016-02-03T06:16:26.965Z,5.7
2016-02-03T06:17:29.265Z,5.7
2016-02-03T06:18:31.049Z,5.7
2016-02-03T06:19:32.849Z,5.6
2016-02-03T06:20:35.211Z,5.6
2016-02-03T06:21:36.933Z,5.5
2016-02-03T06:22:39.256Z,5.5
2016-02-03T06:23:37.946Z,5.5
2016-02-03T06:24:36.919Z,5.4
2016-02-03T06:25:35.624Z,5.4
2016-02-03T06:26:34.080Z,5.4
2016-02-03T06:27:36.383Z,5.3
2016-02-03T06:28:34.839Z,5.3
2016-02-03T06:29:33.796Z,5.3
2016-02-03T06:30:32.329Z,5.3
2016-02-03T06:31:34.050Z,5.3
2016-02-03T06:32:32.756Z,5.3
2016-02-03T06:33:31.728Z,5.3
2016-02-03T06:34:30.965Z,5.3
2016-02-03T06:35:30.201Z,5.4
2016-02-03T06:36:29.157Z,5.4
2016-02-03T06:37:28.378Z,5.4
2016-02-03T06:38:27.351Z,5.4
2016-02-03T06:39:26.087Z,5.4
2016-02-03T06:40:25.089Z,5.4
2016-02-03T06:41:26.811Z,5.4
2016-02-03T06:42:26.048Z,5.5
2016-02-03T06:43:25.004Z,5.5
2016-02-03T06:44:23.975Z,5.5
2016-02-03T06:45:23.213Z,5.6
2016-02-03T06:46:22.437Z,5.6
2016-02-03T06:47:21.924Z,5.6
2016-02-03T06:48:21.395Z,5.6
2016-02-03T06:49:20.616Z,5.5
2016-02-03T06:50:19.666Z,5.4
2016-02-03T06:51:21.389Z,5.4
2016-02-03T06:52:20.612Z,5.4
2016-02-03T06:53:20.088Z,5.3
2016-02-03T06:54:19.809Z,5.3
2016-02-03T06:55:19.546Z,5.3
2016-02-03T06:56:19.284Z,5.3
2016-02-03T06:57:19.018Z,5.3
2016-02-03T06:58:18.757Z,5.2
2016-02-03T06:59:18.494Z,5.2
2016-02-03T07:00:18.028Z,5.2
2016-02-03T07:01:19.780Z,5.2
2016-02-03T07:02:19.486Z,5.2
2016-02-03T07:03:19.463Z,5.2
2016-02-03T07:04:19.705Z,5.1
2016-02-03T07:05:19.947Z,5.2
2016-02-03T07:06:20.190Z,5.2
2016-02-03T07:07:20.433Z,5.3
2016-02-03T07:08:20.698Z,5.3
2016-02-03T07:09:20.931Z,5.3
2016-02-03T07:10:21.229Z,5.3
2016-02-03T07:11:22.963Z,5.3
2016-02-03T07:12:22.964Z,5.3
2016-02-03T07:13:22.699Z,5.3
2016-02-03T07:14:22.419Z,5.3
2016-02-03T07:15:22.436Z,5.4
2016-02-03T07:16:22.187Z,5.4
2016-02-03T07:17:21.659Z,5.5
2016-02-03T07:18:21.145Z,5.6
2016-02-03T07:19:20.880Z,5.6
2016-02-03T07:20:20.679Z,5.6
2016-02-03T07:21:22.418Z,5.6
2016-02-03T07:22:21.875Z,5.7
2016-02-03T07:23:21.628Z,5.7
2016-02-03T07:24:21.380Z,5.7
2016-02-03T07:25:20.833Z,5.7
2016-02-03T07:26:20.586Z,5.7
2016-02-03T07:27:20.292Z,5.7
2016-02-03T07:28:20.310Z,5.7
2016-02-03T07:29:20.535Z,5.7
2016-02-03T07:30:20.585Z,5.7
2016-02-03T07:31:22.341Z,5.7
2016-02-03T07:32:22.311Z,5.7
2016-02-03T07:33:22.313Z,5.7
2016-02-03T07:34:22.567Z,5.7
2016-02-03T07:35:22.601Z,5.7
2016-02-03T07:36:22.307Z,5.7
2016-02-03T07:37:22.060Z,5.7
2016-02-03T07:38:22.047Z,5.8
2016-02-03T07:39:22.019Z,5.8
2016-02-03T07:40:22.099Z,5.8
2016-02-03T07:41:23.822Z,5.7
2016-02-03T07:42:23.590Z,5.8
2016-02-03T07:43:23.061Z,5.7
2016-02-03T07:44:22.284Z,5.8
2016-02-03T07:45:21.503Z,5.8
2016-02-03T07:46:20.989Z,5.8
2016-02-03T07:47:20.695Z,5.8
2016-02-03T07:48:20.713Z,5.8
2016-02-03T07:49:20.432Z,5.8
2016-02-03T07:50:20.481Z,5.8
2016-02-03T07:51:22.234Z,5.9
2016-02-03T07:52:21.987Z,5.9
2016-02-03T07:53:21.459Z,5.9
2016-02-03T07:54:21.212Z,5.9
2016-02-03T07:55:20.683Z,5.9
2016-02-03T07:56:20.420Z,5.9
2016-02-03T07:57:20.173Z,5.9
2016-02-03T07:58:19.894Z,5.9
2016-02-03T07:59:19.647Z,6
2016-02-03T08:00:19.181Z,6.1
2016-02-03T08:01:20.933Z,6.1
2016-02-03T08:02:20.389Z,6.1
2016-02-03T08:03:20.127Z,6.1
2016-02-03T08:04:19.880Z,6.1
2016-02-03T08:05:19.397Z,6.1
2016-02-03T08:06:18.588Z,6.1
2016-02-03T08:07:18.059Z,6.1
2016-02-03T08:08:17.532Z,6.1
2016-02-03T08:09:17.284Z,6.2
2016-02-03T08:10:16.568Z,6.1
2016-02-03T08:11:18.305Z,6.1
2016-02-03T08:12:17.777Z,6.1
2016-02-03T08:14:17.001Z,6.1
2016-02-03T08:15:16.472Z,6.1
2016-02-03T08:16:16.194Z,6.1
2016-02-03T08:17:16.196Z,6.1
2016-02-03T08:18:15.918Z,6.1
2016-02-03T08:19:15.936Z,6.1
2016-02-03T08:20:15.754Z,6.1
2016-02-03T08:21:17.476Z,6.2
2016-02-03T08:22:16.948Z,6.2
2016-02-03T08:23:16.169Z,6.3
2016-02-03T08:24:15.392Z,6.2
2016-02-03T08:25:14.628Z,6.3
2016-02-03T08:26:13.850Z,6.3
2016-02-03T08:27:13.336Z,6.3
2016-02-03T08:28:12.808Z,6.4
2016-02-03T08:29:12.295Z,6.3
2016-02-03T08:30:11.580Z,6.4
2016-02-03T08:31:13.316Z,6.3
2016-02-03T08:32:12.539Z,6.3
2016-02-03T08:33:12.042Z,6.3
2016-02-03T08:34:11.498Z,6.3
2016-02-03T08:35:11.234Z,6.2
2016-02-03T08:36:10.722Z,6.1
2016-02-03T08:37:10.192Z,6.1
2016-02-03T08:38:09.930Z,6.1
2016-02-03T08:39:09.667Z,6.1
2016-02-03T08:40:09.451Z,6.1
2016-02-03T08:41:11.189Z,6.2
2016-02-03T08:42:10.926Z,6.2
2016-02-03T08:43:10.678Z,6.2
2016-02-03T08:44:10.386Z,6.3
2016-02-03T08:45:10.654Z,6.2
2016-02-03T08:46:10.391Z,6.3
2016-02-03T08:47:09.864Z,6.3
2016-02-03T08:48:09.616Z,6.3
2016-02-03T08:49:08.843Z,6.4
2016-02-03T08:50:08.376Z,6.4
2016-02-03T08:51:10.115Z,6.5
2016-02-03T08:52:09.603Z,6.5
2016-02-03T08:53:08.809Z,6.5
2016-02-03T08:54:08.296Z,6.5
2016-02-03T08:55:07.252Z,6.6
2016-02-03T08:56:05.975Z,6.5
2016-02-03T08:57:04.946Z,6.6
2016-02-03T08:58:04.167Z,6.6
2016-02-03T08:59:03.405Z,6.6
2016-02-03T09:00:02.673Z,6.6
2016-02-03T09:01:04.394Z,6.6
2016-02-03T09:02:03.616Z,6.6
2016-02-03T09:03:02.572Z,6.7
2016-02-03T09:04:01.289Z,6.7
2016-02-03T09:04:59.996Z,6.7
2016-02-03T09:05:58.459Z,6.9
2016-02-03T09:06:56.915Z,6.9
2016-02-03T09:07:59.215Z,7
2016-02-03T09:09:01.529Z,7
2016-02-03T09:10:03.876Z,7.1
2016-02-03T09:11:05.599Z,7.2
2016-02-03T09:12:07.898Z,7.3
2016-02-03T09:13:09.948Z,7.3
2016-02-03T09:14:11.985Z,7.3
2016-02-03T09:15:13.816Z,7.2
2016-02-03T09:16:15.568Z,7.2
2016-02-03T09:17:17.602Z,7.2
2016-02-03T09:18:19.651Z,7.2
2016-02-03T09:19:21.436Z,7.3
2016-02-03T09:20:23.532Z,7.3
2016-02-03T09:21:25.268Z,7.3
2016-02-03T09:22:27.074Z,7.3
2016-02-03T09:23:28.830Z,7.3
2016-02-03T09:24:30.630Z,7.3
2016-02-03T09:25:32.663Z,7.3
2016-02-03T09:26:34.729Z,7.3
2016-02-03T09:27:35.981Z,7.3
2016-02-03T09:28:37.531Z,7.4
2016-02-03T09:29:39.314Z,7.6
2016-02-03T09:30:40.629Z,7.7
2016-02-03T09:31:42.382Z,8.1
2016-02-03T09:32:43.120Z,8.6
2016-02-03T09:33:43.106Z,9.2
2016-02-03T09:34:42.359Z,9.6
2016-02-03T09:35:44.643Z,9.8
2016-02-03T09:36:46.412Z,9.7
2016-02-03T09:37:47.945Z,9.5
2016-02-03T09:38:49.761Z,9.7
2016-02-03T09:39:51.794Z,10
2016-02-03T09:40:53.625Z,10.3
2016-02-03T09:41:55.348Z,10.2
2016-02-03T09:42:56.365Z,10.1
2016-02-03T09:43:57.900Z,10.1
2016-02-03T09:44:59.418Z,9.8
2016-02-03T09:46:00.686Z,9.6
2016-02-03T09:47:02.221Z,9.6
2016-02-03T09:48:04.255Z,9.6
2016-02-03T09:49:06.539Z,9.8
2016-02-03T09:50:07.807Z,9.8
2016-02-03T09:51:08.889Z,10.4
2016-02-03T09:52:10.642Z,10.6
2016-02-03T09:53:10.894Z,10.8
2016-02-03T09:54:11.101Z,10.9
2016-02-03T09:55:10.307Z,11.5
2016-02-03T09:56:09.263Z,11.3
2016-02-03T09:57:07.718Z,11.1
2016-02-03T09:58:06.440Z,10.6
2016-02-03T09:59:05.660Z,10.1
2016-02-03T10:00:05.117Z,9.7
2016-02-03T10:01:05.402Z,9.5
2016-02-03T10:02:07.123Z,9.1
2016-02-03T10:03:08.156Z,8.8
2016-02-03T10:04:09.440Z,8.5
2016-02-03T10:05:11.708Z,8.3
2016-02-03T10:06:14.009Z,8.2
2016-02-03T10:07:12.731Z,8.1
2016-02-03T10:08:11.389Z,8
2016-02-03T10:09:10.345Z,7.9
2016-02-03T10:10:09.567Z,7.9
2016-02-03T10:11:08.585Z,7.8
2016-02-03T10:12:10.307Z,7.7
2016-02-03T10:13:09.515Z,7.7
2016-02-03T10:14:08.737Z,7.6
2016-02-03T10:15:08.208Z,7.6
2016-02-03T10:16:08.196Z,7.6
2016-02-03T10:17:08.463Z,7.6
2016-02-03T10:18:08.171Z,7.7
2016-02-03T10:19:08.418Z,8.2
2016-02-03T10:20:08.155Z,8.3
2016-02-03T10:21:06.924Z,8.1
2016-02-03T10:22:08.630Z,8.5
2016-02-03T10:23:07.600Z,8.5
2016-02-03T10:24:06.432Z,8.2
2016-02-03T10:25:04.747Z,8.1
2016-02-03T10:26:03.438Z,7.8
2016-02-03T10:27:02.956Z,8.9
2016-02-03T10:28:02.506Z,9.8
2016-02-03T10:29:04.180Z,10.5
2016-02-03T10:30:04.418Z,10.5
2016-02-03T10:31:04.451Z,11.3
2016-02-03T10:32:06.173Z,12.1
2016-02-03T10:33:05.113Z,12.7
2016-02-03T10:34:06.116Z,13.3
2016-02-03T10:35:06.619Z,13.9
2016-02-03T10:36:06.356Z,14.6
2016-02-03T10:37:05.080Z,14.9
2016-02-03T10:38:03.505Z,15.1
2016-02-03T10:39:05.788Z,15.5
2016-02-03T10:40:07.541Z,15.9
2016-02-03T10:41:08.622Z,16.1
2016-02-03T10:42:10.313Z,15.7
2016-02-03T10:43:11.330Z,15.3
2016-02-03T10:44:12.599Z,15
2016-02-03T10:45:14.385Z,15
2016-02-03T10:46:15.871Z,15.3
2016-02-03T10:47:16.874Z,15.7
2016-02-03T10:48:17.362Z,15.7
2016-02-03T10:49:17.848Z,15.6
2016-02-03T10:50:18.586Z,15
2016-02-03T10:51:19.120Z,15.1
2016-02-03T10:52:20.841Z,14.5
2016-02-03T10:53:22.344Z,13.8
2016-02-03T10:54:23.867Z,14
2016-02-03T10:55:25.870Z,14.2
2016-02-03T10:56:27.623Z,13.4
2016-02-03T10:57:29.407Z,12.7
2016-02-03T10:58:28.112Z,11.9
2016-02-03T10:59:27.037Z,11.2
2016-02-03T11:00:27.525Z,10.9
2016-02-03T11:01:29.075Z,11
2016-02-03T11:02:30.781Z,10.7
2016-02-03T11:03:32.034Z,10.3
2016-02-03T11:04:34.055Z,10.1
2016-02-03T11:05:32.477Z,9.9
2016-02-03T11:06:31.418Z,9.8
2016-02-03T11:07:29.874Z,9.6
2016-02-03T11:08:29.066Z,9.4
2016-02-03T11:09:28.272Z,9.3
2016-02-03T11:10:27.478Z,9.1
2016-02-03T11:11:27.497Z,8.9
2016-02-03T11:12:29.218Z,8.7
2016-02-03T11:13:29.705Z,8.6
2016-02-03T11:15:30.930Z,8.3
2016-02-03T11:16:31.921Z,8.2
2016-02-03T11:17:32.925Z,8.1
2016-02-03T11:18:34.447Z,8
2016-02-03T11:19:35.964Z,8
2016-02-03T11:20:37.453Z,7.9
2016-02-03T11:21:39.283Z,7.9
2016-02-03T11:22:41.005Z,7.8
2016-02-03T11:23:43.023Z,7.8
2016-02-03T11:24:45.292Z,7.9
2016-02-03T11:25:47.060Z,7.9
2016-02-03T11:26:48.595Z,8
2016-02-03T11:27:50.099Z,8.1
2016-02-03T11:28:51.617Z,8.2
2016-02-03T11:29:53.120Z,8.2
2016-02-03T11:30:54.122Z,8.2
2016-02-03T11:31:55.438Z,8.1
2016-02-03T11:32:57.145Z,8.1
2016-02-03T11:33:58.662Z,8.1
2016-02-03T11:34:59.918Z,8.1
2016-02-03T11:36:01.436Z,8.1
2016-02-03T11:37:02.955Z,8
2016-02-03T11:38:04.192Z,7.9
2016-02-03T11:39:05.460Z,7.8
2016-02-03T11:40:06.965Z,7.7
2016-02-03T11:41:08.733Z,7.7
2016-02-03T11:42:10.830Z,7.7
2016-02-03T11:43:12.535Z,7.6
2016-02-03T11:44:10.976Z,7.6
2016-02-03T11:45:13.010Z,7.5
2016-02-03T11:46:14.793Z,7.4
2016-02-03T11:47:17.062Z,7.3
2016-02-03T11:48:19.096Z,7.3
2016-02-03T11:49:20.868Z,7.3
2016-02-03T11:50:23.153Z,7.3
2016-02-03T11:51:25.436Z,7.3
2016-02-03T11:52:27.785Z,7.3
2016-02-03T11:53:29.490Z,7.3
2016-02-03T11:54:27.932Z,7.3
2016-02-03T11:55:26.387Z,7.3
2016-02-03T11:56:25.078Z,7.3
2016-02-03T11:57:23.502Z,7.3
2016-02-03T11:58:22.474Z,7.3
2016-02-03T11:59:21.182Z,7.3
2016-02-03T12:00:19.872Z,7.3
2016-02-03T12:01:18.593Z,7.3
2016-02-03T12:02:17.330Z,7.4
2016-02-03T12:03:19.051Z,7.4
2016-02-03T12:04:21.075Z,7.4
2016-02-03T12:05:23.359Z,7.3
2016-02-03T12:06:25.644Z,7.2
2016-02-03T12:07:24.099Z,7.1
2016-02-03T12:08:22.790Z,7.1
2016-02-03T12:09:21.480Z,7
2016-02-03T12:10:20.701Z,7
2016-02-03T12:12:19.176Z,6.9
2016-02-03T12:13:20.897Z,6.8
2016-02-03T12:14:20.103Z,6.7
2016-02-03T12:15:19.841Z,6.8
2016-02-03T12:16:19.827Z,6.8
2016-02-03T12:17:19.533Z,6.7
2016-02-03T12:18:19.261Z,6.7
2016-02-03T12:19:18.718Z,6.7
2016-02-03T12:20:17.939Z,6.7
2016-02-03T12:21:17.426Z,6.7
2016-02-03T12:22:16.928Z,6.8
2016-02-03T12:23:18.651Z,6.8
2016-02-03T12:24:18.123Z,6.8
2016-02-03T12:25:17.594Z,6.9
2016-02-03T12:26:17.319Z,6.8
2016-02-03T12:27:16.791Z,6.8
2016-02-03T12:28:16.247Z,6.9
2016-02-03T12:29:15.469Z,6.9
2016-02-03T12:30:14.674Z,6.9
2016-02-03T12:31:13.899Z,6.9
2016-02-03T12:32:13.416Z,7
2016-02-03T12:33:15.138Z,7
2016-02-03T12:34:14.094Z,7.1
2016-02-03T12:35:13.065Z,7.1
2016-02-03T12:36:11.508Z,7.2
2016-02-03T12:37:09.949Z,7.3
2016-02-03T12:39:07.112Z,7.3
2016-02-03T12:40:05.537Z,7.3
2016-02-03T12:41:07.821Z,7.3
2016-02-03T12:42:09.917Z,7.4
2016-02-03T12:43:11.640Z,7.5
2016-02-03T12:44:13.659Z,7.5
2016-02-03T12:45:15.427Z,7.6
2016-02-03T12:46:16.695Z,7.5
2016-02-03T12:47:17.463Z,7.4
2016-02-03T12:48:18.466Z,7.4
2016-02-03T12:49:20.250Z,7.3
2016-02-03T12:50:22.036Z,7.2
2016-02-03T12:51:24.054Z,7.2
2016-02-03T12:53:27.356Z,7.1
2016-02-03T12:54:29.391Z,7.1
2016-02-03T12:55:31.675Z,7.1
2016-02-03T12:56:33.460Z,7.1
2016-02-03T12:57:35.495Z,7.1
2016-02-03T12:58:37.264Z,7
2016-02-03T12:59:38.266Z,7
2016-02-03T13:00:39.287Z,7
2016-02-03T13:01:40.821Z,6.9
2016-02-03T13:02:42.387Z,6.9
2016-02-03T13:03:44.109Z,6.9
2016-02-03T13:04:45.877Z,6.9
2016-02-03T13:05:46.630Z,6.9
2016-02-03T13:06:47.133Z,6.9
2016-02-03T13:07:47.620Z,6.9
2016-02-03T13:08:48.123Z,6.9
2016-02-03T13:09:48.875Z,6.9
2016-02-03T13:10:49.878Z,6.9
2016-02-03T13:11:50.646Z,6.9
2016-02-03T13:12:50.946Z,6.9
2016-02-03T13:13:52.667Z,6.9
2016-02-03T13:14:52.655Z,6.9
2016-02-03T13:15:52.626Z,6.9
2016-02-03T13:16:52.378Z,6.8
2016-02-03T13:17:52.584Z,6.9
2016-02-03T13:18:53.091Z,6.9
2016-02-03T13:19:53.593Z,6.9
2016-02-03T13:20:53.830Z,6.9
2016-02-03T13:21:53.821Z,6.9
2016-02-03T13:22:53.855Z,6.9
2016-02-03T13:23:55.591Z,6.9
2016-02-03T13:24:55.829Z,6.8
2016-02-03T13:25:56.065Z,6.8
2016-02-03T13:26:56.305Z,6.8
2016-02-03T13:27:56.526Z,6.7
2016-02-03T13:28:57.031Z,6.7
2016-02-03T13:29:57.533Z,6.7
2016-02-03T13:30:58.037Z,6.6
2016-02-03T13:31:58.789Z,6.5
2016-02-03T13:32:59.605Z,6.5
2016-02-03T13:34:01.328Z,6.5
2016-02-03T13:35:02.065Z,6.5
2016-02-03T13:36:03.083Z,6.5
2016-02-03T13:37:03.587Z,6.5
2016-02-03T13:38:04.339Z,6.5
2016-02-03T13:39:05.608Z,6.5
2016-02-03T13:40:06.344Z,6.5
2016-02-03T13:41:06.850Z,6.5
2016-02-03T13:42:08.133Z,6.5
2016-02-03T13:43:09.184Z,6.5
2016-02-03T13:44:10.905Z,6.5
2016-02-03T13:45:11.658Z,6.5
2016-02-03T13:46:12.161Z,6.5
2016-02-03T13:47:12.914Z,6.5
2016-02-03T13:48:13.667Z,6.5
2016-02-03T13:49:14.420Z,6.5
2016-02-03T13:50:14.923Z,6.5
2016-02-03T13:51:15.676Z,6.6
2016-02-03T13:52:16.694Z,6.6
2016-02-03T13:53:18.012Z,6.6
2016-02-03T13:54:19.733Z,6.7
2016-02-03T13:55:20.736Z,6.7
2016-02-03T13:56:21.488Z,6.7
2016-02-03T13:57:22.254Z,6.8
2016-02-03T13:58:23.008Z,6.7
2016-02-03T13:59:24.011Z,6.7
2016-02-03T14:00:25.282Z,6.7
2016-02-03T14:01:26.285Z,6.7
2016-02-03T14:02:27.553Z,6.7
2016-02-03T14:03:29.385Z,6.7
2016-02-03T14:04:31.106Z,6.8